Time;durP1;ratioP1;P1;durP2;ratioP2;P2;SDS_P1;SDS_P2;PMS_P1;PMS_P2;Temp;Humidity;BMP_temperature;BMP_pressure;BME280_temperature;BME280_humidity;BME280_pressure;Samples;Min_cycle;Max_cycle;Signal;HPM_P1;HPM_P2
2022/10/13 00:01:17;;;;;;;29.05;15.93;;;;;;;9.75;100.00;97883.13;5027591;28;20069;-63
2022/10/13 00:03:47;;;;;;;25.38;15.07;;;;;;;9.76;100.00;97882.06;5027036;28;20041;-64
2022/10/13 00:06:20;;;;;;;27.50;14.38;;;;;;;9.70;100.00;97883.03;5028221;28;20495;-63
2022/10/13 00:08:47;;;;;;;26.58;15.25;;;;;;;9.69;100.00;97878.69;5027452;28;20366;-63
2022/10/13 00:11:23;;;;;;;25.98;14.38;;;;;;;9.69;100.00;97874.06;5027013;28;20041;-62
2022/10/13 00:13:53;;;;;;;27.13;13.88;;;;;;;9.62;100.00;97878.78;5024126;28;20064;-62
2022/10/13 00:16:21;;;;;;;20.35;12.27;;;;;;;9.57;100.00;97876.78;5026834;28;20137;-63
2022/10/13 00:18:48;;;;;;;23.52;12.68;;;;;;;9.54;100.00;97879.13;5028018;28;20045;-62
2022/10/13 00:21:21;;;;;;;26.38;14.23;;;;;;;9.65;100.00;97874.81;5026315;28;20072;-63
2022/10/13 00:23:47;;;;;;;24.25;13.05;;;;;;;9.23;100.00;97877.31;5027572;28;20400;-63
2022/10/13 00:26:19;;;;;;;22.95;13.07;;;;;;;9.34;100.00;97886.50;5027896;28;20385;-63
2022/10/13 00:28:45;;;;;;;21.70;12.68;;;;;;;9.39;100.00;97874.97;5026801;28;20049;-63
2022/10/13 00:31:24;;;;;;;26.30;13.43;;;;;;;9.12;100.00;97878.09;5027537;28;20057;-63
2022/10/13 00:33:51;;;;;;;26.33;14.07;;;;;;;8.97;100.00;97875.81;5027560;28;20124;-63
2022/10/13 00:36:20;;;;;;;23.67;13.82;;;;;;;9.01;100.00;97885.09;5027815;28;20056;-63
2022/10/13 00:38:47;;;;;;;28.77;15.05;;;;;;;8.91;100.00;97890.19;5027411;28;20081;-63
2022/10/13 00:41:14;;;;;;;26.38;13.68;;;;;;;8.76;100.00;97883.34;5025910;28;20052;-63
2022/10/13 00:43:56;;;;;;;24.50;14.43;;;;;;;8.68;100.00;97879.09;5027096;28;20451;-62
2022/10/13 00:46:24;;;;;;;23.30;13.50;;;;;;;8.51;100.00;97886.13;5007465;28;20122;-63
2022/10/13 00:48:59;;;;;;;24.05;13.40;;;;;;;8.37;100.00;97885.44;5023920;28;20076;-63
2022/10/13 00:51:29;;;;;;;26.50;13.38;;;;;;;8.36;100.00;97884.59;5026684;28;20388;-62
2022/10/13 00:53:58;;;;;;;29.60;15.20;;;;;;;8.41;100.00;97881.25;5027116;28;20128;-63
2022/10/13 00:56:26;;;;;;;26.17;13.85;;;;;;;8.35;100.00;97882.97;5027520;28;20132;-62
2022/10/13 00:58:54;;;;;;;24.60;13.52;;;;;;;8.30;100.00;97883.63;5026440;28;20488;-63
2022/10/13 01:01:21;;;;;;;25.73;13.00;;;;;;;8.41;100.00;97882.06;5027319;28;20164;-63
2022/10/13 01:03:47;;;;;;;28.80;14.38;;;;;;;8.49;100.00;97886.34;5025775;28;20052;-63
2022/10/13 01:06:15;;;;;;;22.60;11.52;;;;;;;8.09;100.00;97863.31;5026912;28;20337;-63
2022/10/13 01:08:48;;;;;;;21.92;11.40;;;;;;;7.87;100.00;97862.91;5026860;28;20041;-63
2022/10/13 01:11:55;;;;;;;23.95;13.30;;;;;;;7.87;100.00;97874.53;5020197;28;20475;-63
2022/10/13 01:14:35;;;;;;;24.30;12.02;;;;;;;7.95;100.00;97878.81;5025509;28;20053;-64
2022/10/13 01:17:12;;;;;;;25.35;13.02;;;;;;;7.97;100.00;97881.28;5022607;28;20069;-62
2022/10/13 01:20:00;;;;;;;25.55;12.50;;;;;;;7.71;100.00;97878.63;5027230;28;20072;-64
2022/10/13 01:22:44;;;;;;;24.83;12.75;;;;;;;7.50;100.00;97879.81;5026299;28;20149;-62
2022/10/13 01:25:29;;;;;;;25.52;14.60;;;;;;;7.65;100.00;97882.19;5026319;28;20043;-63
2022/10/13 01:28:27;;;;;;;27.17;14.98;;;;;;;7.62;100.00;97877.22;5026357;28;20128;-63
2022/10/13 01:31:19;;;;;;;30.42;14.82;;;;;;;7.57;100.00;97872.50;5026030;28;20046;-63
2022/10/13 01:33:54;;;;;;;30.02;15.18;;;;;;;7.60;100.00;97872.09;5022777;28;20037;-63
2022/10/13 01:36:36;;;;;;;28.42;14.35;;;;;;;7.60;100.00;97866.69;5009764;28;20492;-62
2022/10/13 01:39:12;;;;;;;25.67;14.10;;;;;;;7.44;100.00;97859.16;5026970;28;20041;-63
2022/10/13 01:41:44;;;;;;;31.92;15.40;;;;;;;7.53;100.00;97866.72;5025172;28;20524;-63
2022/10/13 01:44:17;;;;;;;30.75;14.93;;;;;;;7.53;100.00;97864.03;5026255;28;20121;-62
2022/10/13 01:46:52;;;;;;;28.88;14.57;;;;;;;7.42;100.00;97854.78;5025836;28;20323;-62
2022/10/13 01:49:23;;;;;;;27.50;13.85;;;;;;;7.45;100.00;97852.72;5025414;28;20568;-63
2022/10/13 01:51:50;;;;;;;28.38;14.48;;;;;;;7.47;100.00;97845.22;5025631;28;20042;-63
2022/10/13 01:54:17;;;;;;;27.85;14.57;;;;;;;7.49;100.00;97848.53;5025525;28;20124;-62
2022/10/13 01:56:54;;;;;;;26.42;14.23;;;;;;;7.42;100.00;97851.28;5025495;28;20048;-62
2022/10/13 01:59:23;;;;;;;30.48;15.20;;;;;;;7.38;100.00;97853.56;5026111;28;20394;-63
2022/10/13 02:02:25;;;;;;;29.77;15.02;;;;;;;7.46;100.00;97852.50;5025654;28;20033;-63
2022/10/13 02:05:03;;;;;;;29.15;13.75;;;;;;;7.48;100.00;97857.66;5026338;28;20120;-62
2022/10/13 02:07:42;;;;;;;24.88;13.40;;;;;;;7.52;100.00;97851.59;5025771;28;20128;-62
2022/10/13 02:10:18;;;;;;;30.08;15.25;;;;;;;7.52;100.00;97846.22;5025643;28;20053;-63
2022/10/13 02:12:59;;;;;;;31.33;14.75;;;;;;;7.48;100.00;97845.00;5024942;28;20061;-63
2022/10/13 02:15:33;;;;;;;28.15;13.63;;;;;;;7.37;100.00;97838.47;5024896;28;20132;-63
2022/10/13 02:18:03;;;;;;;29.77;13.88;;;;;;;7.62;100.00;97851.13;5013716;28;20095;-63
2022/10/13 02:20:30;;;;;;;26.13;12.57;;;;;;;7.62;100.00;97845.72;5025543;28;20055;-62
2022/10/13 02:23:06;;;;;;;26.95;13.75;;;;;;;7.65;100.00;97847.16;5025991;28;20049;-63
2022/10/13 02:25:34;;;;;;;25.83;13.98;;;;;;;7.76;100.00;97835.66;5025186;28;20052;-62
2022/10/13 02:28:01;;;;;;;25.52;12.27;;;;;;;7.77;100.00;97840.00;5025610;28;20125;-63
2022/10/13 02:30:31;;;;;;;27.48;13.63;;;;;;;7.96;100.00;97839.19;5025107;28;20049;-62
2022/10/13 02:32:59;;;;;;;25.58;14.23;;;;;;;8.12;100.00;97838.59;5025811;28;20473;-62
2022/10/13 02:35:26;;;;;;;24.70;12.27;;;;;;;8.26;100.00;97835.75;5025303;28;20419;-63
2022/10/13 02:37:52;;;;;;;25.80;12.38;;;;;;;8.39;100.00;97832.06;5024950;28;20124;-62
2022/10/13 02:40:18;;;;;;;19.85;11.65;;;;;;;8.45;100.00;97831.16;5025853;28;20125;-63
2022/10/13 02:42:45;;;;;;;19.27;11.60;;;;;;;8.35;100.00;97838.97;5025895;28;20124;-63
2022/10/13 02:45:11;;;;;;;20.33;12.30;;;;;;;8.50;100.00;97828.59;5029214;28;20052;-63
2022/10/13 02:47:38;;;;;;;21.08;11.32;;;;;;;8.57;100.00;97829.38;5029731;28;20484;-63
2022/10/13 02:50:05;;;;;;;22.77;13.00;;;;;;;8.59;100.00;97829.16;5029524;28;20069;-63
2022/10/13 02:52:31;;;;;;;24.58;12.63;;;;;;;8.52;100.00;97831.09;5028725;28;20045;-63
2022/10/13 02:54:57;;;;;;;25.20;12.70;;;;;;;8.60;100.00;97833.50;5027890;28;20116;-62
2022/10/13 02:57:24;;;;;;;25.67;13.38;;;;;;;8.71;100.00;97838.13;5027905;28;20044;-63
2022/10/13 02:59:51;;;;;;;27.27;14.07;;;;;;;8.91;100.00;97847.00;5029752;28;20460;-63
2022/10/13 03:02:17;;;;;;;24.50;13.48;;;;;;;8.95;100.00;97835.50;5029420;28;20045;-63
2022/10/13 03:04:45;;;;;;;28.17;14.52;;;;;;;9.03;100.00;97839.75;5029751;28;20048;-63
2022/10/13 03:07:12;;;;;;;23.75;13.80;;;;;;;9.08;100.00;97828.28;5029484;28;20076;-63
2022/10/13 03:09:38;;;;;;;27.45;15.07;;;;;;;9.20;100.00;97834.53;5028448;28;20041;-63
2022/10/13 03:12:05;;;;;;;34.08;16.67;;;;;;;9.33;100.00;97832.69;5029236;28;20125;-63
2022/10/13 03:14:32;;;;;;;30.13;15.63;;;;;;;9.40;100.00;97830.66;5028626;28;20041;-63
2022/10/13 03:16:59;;;;;;;29.40;15.82;;;;;;;9.52;100.00;97833.41;5028299;28;20684;-62
2022/10/13 03:19:25;;;;;;;30.83;14.07;;;;;;;9.53;100.00;97824.22;5029118;28;20041;-63
2022/10/13 03:21:52;;;;;;;29.83;15.45;;;;;;;9.58;100.00;97818.13;5028546;28;20059;-63
2022/10/13 03:24:18;;;;;;;35.05;21.05;;;;;;;9.60;100.00;97810.59;5028649;28;20061;-63
2022/10/13 03:26:44;;;;;;;34.45;18.55;;;;;;;9.61;100.00;97810.38;5028306;28;20045;-63
2022/10/13 03:29:17;;;;;;;34.83;16.50;;;;;;;9.66;100.00;97798.84;5028379;28;20482;-63
2022/10/13 03:31:43;;;;;;;26.87;15.90;;;;;;;9.62;100.00;97803.09;5028234;28;20039;-63
2022/10/13 03:34:11;;;;;;;29.70;16.55;;;;;;;9.64;100.00;97800.97;5027798;28;20136;-63
2022/10/13 03:36:38;;;;;;;27.13;16.35;;;;;;;9.66;100.00;97803.44;5028920;28;20124;-63
2022/10/13 03:39:05;;;;;;;27.27;15.35;;;;;;;9.69;100.00;97802.97;5028151;28;20037;-62
2022/10/13 03:41:32;;;;;;;26.48;14.48;;;;;;;9.76;100.00;97809.06;5028149;28;20238;-63
2022/10/13 03:43:58;;;;;;;25.67;13.88;;;;;;;9.83;100.00;97811.66;5028718;28;20041;-63
2022/10/13 03:46:28;;;;;;;28.20;14.90;;;;;;;9.90;100.00;97812.34;5027563;28;20125;-64
2022/10/13 03:48:56;;;;;;;;;;;;;;;9.95;100.00;97823.28;5029111;28;20041;-63
2022/10/13 03:51:23;;;;;;;30.95;14.38;;;;;;;9.97;100.00;97812.22;5028247;28;19947;-64
2022/10/13 03:53:51;;;;;;;22.90;14.07;;;;;;;9.99;100.00;97810.13;5027837;28;20461;-63
2022/10/13 03:56:21;;;;;;;25.52;13.18;;;;;;;9.86;100.00;97801.19;5028391;28;20072;-63
2022/10/13 03:58:54;;;;;;;23.67;12.88;;;;;;;9.84;100.00;97805.19;5027630;28;20402;-63
2022/10/13 04:01:22;;;;;;;26.80;15.02;;;;;;;9.94;100.00;97808.13;5027814;28;20049;-63
2022/10/13 04:03:51;;;;;;;29.13;15.43;;;;;;;9.91;100.00;97805.06;5026013;28;20053;-63
2022/10/13 04:06:18;;;;;;;29.83;15.32;;;;;;;10.11;100.00;97797.41;5033446;28;20123;-63
2022/10/13 04:08:44;;;;;;;25.40;14.50;;;;;;;10.19;100.00;97792.66;5027615;28;20124;-63
2022/10/13 04:11:13;;;;;;;33.53;14.88;;;;;;;10.19;100.00;97788.09;5025306;28;20041;-63
2022/10/13 04:13:41;;;;;;;25.95;13.75;;;;;;;10.23;100.00;97788.41;5024982;28;20607;-63
2022/10/13 04:16:12;;;;;;;25.70;14.63;;;;;;;10.17;100.00;97787.47;5027726;28;20221;-63
2022/10/13 04:18:39;;;;;;;23.58;12.63;;;;;;;10.11;100.00;97791.16;5026884;28;20125;-63
2022/10/13 04:21:13;;;;;;;25.52;14.80;;;;;;;10.06;100.00;97799.97;5027658;28;20056;-62
2022/10/13 04:23:40;;;;;;;27.13;14.23;;;;;;;9.99;100.00;97796.59;5027235;28;20371;-64
2022/10/13 04:26:13;;;;;;;26.83;14.43;;;;;;;9.92;100.00;97799.44;5026541;28;20038;-63
2022/10/13 04:28:39;;;;;;;25.33;13.05;;;;;;;9.81;100.00;97795.69;5027609;28;20524;-63
2022/10/13 04:31:06;;;;;;;21.52;13.25;;;;;;;9.79;100.00;97803.19;5044829;28;20068;-63
2022/10/13 04:33:33;;;;;;;23.85;13.48;;;;;;;9.81;100.00;97801.09;5040095;28;20049;-63
2022/10/13 04:36:03;;;;;;;25.55;13.10;;;;;;;9.78;100.00;97790.75;5027422;28;20041;-64
2022/10/13 04:38:29;;;;;;;27.95;13.35;;;;;;;9.73;100.00;97794.13;5026866;28;20081;-62
2022/10/13 04:40:56;;;;;;;23.45;12.77;;;;;;;9.68;100.00;97799.44;5027374;28;20077;-63
2022/10/13 04:43:26;;;;;;;25.30;13.63;;;;;;;9.59;100.00;97790.84;5026675;28;20495;-63
2022/10/13 04:45:59;;;;;;;28.17;13.82;;;;;;;9.56;100.00;97787.78;5027334;28;20059;-63
2022/10/13 04:48:25;;;;;;;26.60;13.88;;;;;;;9.43;100.00;97786.97;5026517;28;20047;-63
2022/10/13 04:51:07;;;;;;;25.90;12.98;;;;;;;9.43;100.00;97789.66;5026042;28;20045;-63
2022/10/13 04:53:33;;;;;;;28.75;14.45;;;;;;;9.36;100.00;97787.09;5027001;28;20513;-63
2022/10/13 04:56:02;;;;;;;26.10;13.90;;;;;;;9.35;100.00;97781.91;5026619;28;20053;-63
2022/10/13 04:58:29;;;;;;;27.10;13.50;;;;;;;9.34;100.00;97778.41;5007287;28;20494;-63
2022/10/13 05:01:00;;;;;;;27.17;14.13;;;;;;;9.39;100.00;97788.50;5027886;28;20565;-63
2022/10/13 05:03:27;;;;;;;25.27;14.43;;;;;;;9.34;100.00;97791.91;5034797;28;20037;-62
2022/10/13 05:05:54;;;;;;;25.15;14.10;;;;;;;9.27;100.00;97790.34;5026270;28;20134;-63
2022/10/13 05:08:20;;;;;;;25.73;14.18;;;;;;;9.30;100.00;97790.72;5026336;28;20416;-63
2022/10/13 05:11:01;;;;;;;24.90;14.38;;;;;;;9.30;100.00;97795.31;5026340;28;20056;-63
2022/10/13 05:13:28;;;;;;;33.60;19.45;;;;;;;9.35;100.00;97801.66;5024630;28;20041;-63
2022/10/13 05:15:57;;;;;;;32.28;16.70;;;;;;;9.46;100.00;97799.19;5025804;28;20063;-63
2022/10/13 05:18:24;;;;;;;30.58;15.88;;;;;;;9.48;100.00;97795.19;5027020;28;20120;-63
2022/10/13 05:20:50;;;;;;;36.67;18.08;;;;;;;9.53;100.00;97801.78;5025367;28;20395;-64
2022/10/13 05:23:17;;;;;;;34.63;17.67;;;;;;;9.55;100.00;97803.19;5026282;28;20116;-63
2022/10/13 05:25:44;;;;;;;33.63;17.40;;;;;;;9.60;100.00;97795.22;5031965;28;20049;-63
2022/10/13 05:28:13;;;;;;;31.65;17.08;;;;;;;9.68;100.00;97796.72;5029477;28;20053;-63
2022/10/13 05:30:39;;;;;;;31.05;15.63;;;;;;;9.82;100.00;97801.91;5028563;28;20076;-63
2022/10/13 05:33:06;;;;;;;31.02;16.55;;;;;;;9.88;100.00;97799.06;5021712;28;20068;-63
2022/10/13 05:35:32;;;;;;;31.48;16.77;;;;;;;9.98;100.00;97793.06;5024477;28;20144;-63
2022/10/13 05:37:59;;;;;;;36.58;16.88;;;;;;;10.06;100.00;97796.47;5023956;28;20069;-63
2022/10/13 05:40:27;;;;;;;28.50;16.58;;;;;;;10.02;100.00;97802.34;5022618;28;20080;-63
2022/10/13 05:42:58;;;;;;;31.17;17.25;;;;;;;9.96;100.00;97803.31;5024709;28;20048;-62
2022/10/13 05:45:28;;;;;;;31.95;17.05;;;;;;;10.00;100.00;97803.66;5024071;28;20076;-62
2022/10/13 05:47:54;;;;;;;29.05;16.52;;;;;;;9.97;100.00;97796.81;5023799;28;20046;-62
2022/10/13 05:50:21;;;;;;;31.92;17.40;;;;;;;10.08;100.00;97795.16;5027532;28;20437;-62
2022/10/13 05:52:48;;;;;;;32.58;16.23;;;;;;;10.12;100.00;97790.09;5032300;28;20044;-62
2022/10/13 05:55:16;;;;;;;33.60;16.60;;;;;;;10.10;100.00;97787.63;5029833;28;20045;-63
2022/10/13 05:57:47;;;;;;;28.83;15.32;;;;;;;10.13;100.00;97780.91;5032954;28;20116;-63
2022/10/13 06:00:15;;;;;;;27.40;14.57;;;;;;;10.13;100.00;97786.31;5028670;28;20033;-63
2022/10/13 06:03:10;;;;;;;28.15;15.07;;;;;;;10.13;100.00;97779.03;5032323;28;20099;-63
2022/10/13 06:05:46;;;;;;;31.00;16.08;;;;;;;10.07;100.00;97788.13;5027835;28;20042;-62
2022/10/13 06:08:13;;;;;;;29.27;14.60;;;;;;;10.11;100.00;97786.56;5023882;28;20116;-63
2022/10/13 06:10:42;;;;;;;30.17;15.75;;;;;;;10.13;100.00;97781.72;5022640;28;20068;-63
2022/10/13 06:13:09;;;;;;;29.63;15.45;;;;;;;10.23;100.00;97789.25;5023438;28;20312;-63
2022/10/13 06:15:35;;;;;;;27.02;14.30;;;;;;;10.33;100.00;97790.50;5023258;28;20084;-60
2022/10/13 06:18:06;;;;;;;24.20;14.02;;;;;;;10.27;100.00;97795.00;5021527;28;20150;-63
2022/10/13 06:20:33;;;;;;;26.92;15.07;;;;;;;10.27;100.00;97790.41;5024053;28;20046;-61
2022/10/13 06:22:59;;;;;;;25.23;14.32;;;;;;;10.32;100.00;97789.69;5021301;28;20219;-61
2022/10/13 06:25:26;;;;;;;24.05;13.15;;;;;;;10.28;100.00;97783.09;5022276;28;20069;-59
2022/10/13 06:27:52;;;;;;;23.45;13.55;;;;;;;10.18;100.00;97783.75;5022439;28;20469;-61
2022/10/13 06:30:18;;;;;;;25.85;14.35;;;;;;;10.15;100.00;97781.50;5023082;28;20129;-62
2022/10/13 06:32:45;;;;;;;28.08;14.07;;;;;;;10.08;100.00;97788.91;5022990;28;20056;-63
2022/10/13 06:35:11;;;;;;;25.23;14.73;;;;;;;10.16;100.00;97783.13;5022123;28;20416;-59
2022/10/13 06:37:38;;;;;;;26.58;14.60;;;;;;;10.19;100.00;97788.09;5022481;28;20144;-61
2022/10/13 06:40:09;;;;;;;24.67;14.38;;;;;;;10.21;100.00;97783.25;5019514;28;20049;-60
2022/10/13 06:42:35;;;;;;;25.30;14.05;;;;;;;10.32;100.00;97784.25;5023274;28;20116;-62
2022/10/13 06:45:09;;;;;;;21.95;12.75;;;;;;;10.30;100.00;97778.28;5021736;28;20045;-60
2022/10/13 06:47:38;;;;;;;21.67;13.55;;;;;;;10.32;100.00;97770.72;5018671;28;20065;-60
2022/10/13 06:50:05;;;;;;;21.58;12.02;;;;;;;10.41;100.00;97768.47;5022265;28;20045;-63
2022/10/13 06:52:31;;;;;;;19.38;13.10;;;;;;;10.44;100.00;97769.88;5023551;28;20055;-62
2022/10/13 06:54:58;;;;;;;21.27;13.13;;;;;;;10.58;100.00;97770.44;5023203;28;20053;-60
2022/10/13 06:57:27;;;;;;;20.60;12.68;;;;;;;10.58;100.00;97773.16;5023363;28;20142;-60
2022/10/13 06:59:56;;;;;;;25.92;14.98;;;;;;;10.45;100.00;97764.25;5019555;28;20045;-61
2022/10/13 07:02:22;;;;;;;23.40;13.00;;;;;;;10.37;100.00;97767.31;5019845;28;20785;-61
2022/10/13 07:04:49;;;;;;;27.33;14.43;;;;;;;10.38;100.00;97777.06;5018046;28;20124;-61
2022/10/13 07:07:15;;;;;;;23.50;14.55;;;;;;;10.36;100.00;97776.50;5024062;28;20245;-60
2022/10/13 07:09:43;;;;;;;26.80;14.05;;;;;;;10.35;100.00;97778.38;5016172;28;20199;-60
2022/10/13 07:12:12;;;;;;;26.13;14.43;;;;;;;10.33;100.00;97788.63;5022707;28;20140;-59
2022/10/13 07:14:38;;;;;;;29.20;16.52;;;;;;;10.31;100.00;97781.81;5023129;28;20045;-59
2022/10/13 07:17:09;;;;;;;29.80;15.93;;;;;;;10.26;100.00;97794.19;5022923;28;20053;-58
2022/10/13 07:19:36;;;;;;;33.53;17.30;;;;;;;10.19;100.00;97787.25;5022617;28;20049;-59
2022/10/13 07:22:02;;;;;;;34.00;17.00;;;;;;;10.24;100.00;97792.75;5023514;28;20500;-60
2022/10/13 07:24:29;;;;;;;33.97;18.63;;;;;;;10.30;100.00;97793.69;5024153;28;20049;-61
2022/10/13 07:26:55;;;;;;;36.28;18.70;;;;;;;10.35;100.00;97786.50;5024447;28;20081;-59
2022/10/13 07:29:21;;;;;;;32.63;16.70;;;;;;;10.39;100.00;97784.13;5025613;28;20450;-60
2022/10/13 07:31:48;;;;;;;29.08;16.40;;;;;;;10.37;100.00;97786.25;5028041;28;20120;-60
2022/10/13 07:34:15;;;;;;;31.08;17.67;;;;;;;10.40;100.00;97781.19;5028588;28;20041;-60
2022/10/13 07:36:41;;;;;;;34.80;16.23;;;;;;;10.46;100.00;97784.84;5028328;28;20073;-63
2022/10/13 07:39:08;;;;;;;28.52;16.77;;;;;;;10.52;100.00;97781.19;5028300;28;20042;-64
2022/10/13 07:41:35;;;;;;;32.53;17.08;;;;;;;10.61;100.00;97780.81;5028465;28;20468;-62
2022/10/13 07:44:02;;;;;;;28.40;14.52;;;;;;;10.63;100.00;97782.19;5027590;28;20466;-64
2022/10/13 07:46:29;;;;;;;32.67;16.25;;;;;;;10.63;100.00;97775.94;5027764;28;20124;-63
2022/10/13 07:48:55;;;;;;;24.58;14.68;;;;;;;10.76;100.00;97772.13;5027267;28;20045;-63
2022/10/13 07:51:22;;;;;;;27.42;14.52;;;;;;;10.91;100.00;97769.69;5027944;28;20048;-63
2022/10/13 07:53:49;;;;;;;24.27;15.18;;;;;;;10.92;100.00;97762.38;5027627;28;20046;-63
2022/10/13 07:56:15;;;;;;;25.80;14.63;;;;;;;10.92;100.00;97756.97;5028555;28;20049;-63
2022/10/13 07:58:44;;;;;;;24.40;14.00;;;;;;;11.12;100.00;97752.94;5028039;28;20117;-64
2022/10/13 08:01:12;;;;;;;26.15;13.98;;;;;;;11.14;100.00;97746.25;5026565;28;20075;-63
2022/10/13 08:03:39;;;;;;;24.88;14.48;;;;;;;11.23;100.00;97735.78;5030325;28;20656;-62
2022/10/13 08:06:14;;;;;;;20.73;12.75;;;;;;;11.43;100.00;97753.44;5026596;28;20038;-59
2022/10/13 08:08:41;;;;;;;22.73;12.52;;;;;;;11.56;100.00;97741.41;5025931;28;20116;-61
2022/10/13 08:11:13;;;;;;;21.33;12.20;;;;;;;11.78;100.00;97740.63;5027329;28;20045;-63
2022/10/13 08:13:46;;;;;;;20.08;12.48;;;;;;;11.92;100.00;97743.81;5023122;28;20042;-58
2022/10/13 08:16:17;;;;;;;23.35;13.00;;;;;;;11.73;100.00;97735.13;5027421;28;20045;-60
2022/10/13 08:18:44;;;;;;;23.55;12.82;;;;;;;11.78;100.00;97738.75;5027360;28;20068;-64
2022/10/13 08:21:15;;;;;;;22.75;13.25;;;;;;;11.67;100.00;97745.09;5024250;28;20107;-64
2022/10/13 08:24:02;;;;;;;21.42;12.52;;;;;;;11.84;100.00;97743.16;5027740;28;20046;-60
2022/10/13 08:26:28;;;;;;;21.52;11.52;;;;;;;11.88;100.00;97742.66;5027863;28;20049;-61
2022/10/13 08:28:55;;;;;;;25.27;13.15;;;;;;;11.96;100.00;97743.06;5018601;28;20762;-60
2022/10/13 08:31:42;;;;;;;19.00;12.38;;;;;;;11.93;100.00;97737.28;5020823;28;20116;-59
2022/10/13 08:34:10;;;;;;;23.10;13.75;;;;;;;11.90;100.00;97743.25;5019927;28;20042;-60
2022/10/13 08:36:37;;;;;;;19.55;11.68;;;;;;;11.97;100.00;97727.56;5021622;28;20046;-62
2022/10/13 08:39:04;;;;;;;20.10;12.75;;;;;;;12.08;100.00;97729.38;5019262;28;20515;-62
2022/10/13 08:41:39;;;;;;;19.98;11.05;;;;;;;12.31;100.00;97730.19;5022418;28;20051;-60
2022/10/13 08:44:18;;;;;;;19.10;10.93;;;;;;;12.29;100.00;97724.19;5025393;28;20042;-59
2022/10/13 08:47:17;;;;;;;18.35;10.10;;;;;;;12.39;100.00;97728.94;5024724;28;20179;-60
2022/10/13 08:49:45;;;;;;;21.10;10.95;;;;;;;12.34;100.00;97729.69;5024354;28;20128;-59
2022/10/13 08:52:24;;;;;;;18.05;10.40;;;;;;;12.33;100.00;97732.66;5024465;28;20400;-61
2022/10/13 08:54:53;;;;;;;19.00;11.07;;;;;;;12.38;100.00;97731.88;5022063;28;20068;-60
2022/10/13 08:57:22;;;;;;;15.27;9.87;;;;;;;12.38;100.00;97740.03;5024592;28;20067;-60
2022/10/13 08:59:49;;;;;;;16.38;9.80;;;;;;;12.48;100.00;97742.84;5025194;28;20053;-60
2022/10/13 09:02:25;;;;;;;16.90;10.00;;;;;;;12.64;100.00;97741.09;5024388;28;20401;-59
2022/10/13 09:04:53;;;;;;;16.17;10.32;;;;;;;12.61;100.00;97739.72;5027039;28;20076;-61
2022/10/13 09:07:33;;;;;;;18.73;10.25;;;;;;;12.71;100.00;97739.00;5027161;28;20049;-62
2022/10/13 09:10:00;;;;;;;16.00;9.43;;;;;;;12.88;100.00;97729.94;5026436;28;20526;-61
2022/10/13 09:12:26;;;;;;;16.95;9.43;;;;;;;12.88;100.00;97732.66;5026655;28;20118;-61
2022/10/13 09:15:11;;;;;;;14.80;9.30;;;;;;;13.05;100.00;97735.22;5026929;28;20120;-60
2022/10/13 09:17:40;;;;;;;17.40;9.18;;;;;;;13.21;100.00;97728.03;5026355;28;20045;-60
2022/10/13 09:20:24;;;;;;;15.13;8.70;;;;;;;13.27;99.31;97720.75;5024652;28;20087;-59
2022/10/13 09:23:04;;;;;;;12.88;8.90;;;;;;;13.13;100.00;97726.59;5020611;28;20435;-59
2022/10/13 09:25:46;;;;;;;15.57;9.70;;;;;;;13.18;100.00;97725.81;5023458;28;20537;-59
2022/10/13 09:28:26;;;;;;;16.80;9.55;;;;;;;13.27;99.81;97729.69;5024685;28;20046;-58
2022/10/13 09:31:17;;;;;;;17.50;9.95;;;;;;;13.30;100.00;97731.06;5024283;28;20075;-59
2022/10/13 09:33:44;;;;;;;17.50;9.73;;;;;;;13.36;99.59;97715.63;5026520;28;20037;-62
2022/10/13 09:36:15;;;;;;;19.27;10.95;;;;;;;13.46;98.98;97718.41;5021559;28;20120;-61
2022/10/13 09:39:05;;;;;;;21.15;9.27;;;;;;;13.50;98.55;97716.00;5024701;28;20840;-62
2022/10/13 09:41:33;;;;;;;13.95;8.77;;;;;;;13.65;97.67;97720.72;5019587;28;20527;-61
2022/10/13 09:44:10;;;;;;;14.60;8.95;;;;;;;13.85;96.02;97714.56;5017484;28;20607;-60
2022/10/13 09:46:45;;;;;;;12.93;9.07;;;;;;;13.64;97.53;97710.94;5023566;28;20528;-61
2022/10/13 09:49:30;;;;;;;16.52;9.27;;;;;;;13.73;96.47;97713.97;5021915;28;20116;-60
2022/10/13 09:52:11;;;;;;;17.08;9.00;;;;;;;13.67;96.87;97710.38;5020523;28;20124;-61
2022/10/13 09:54:46;;;;;;;;;;;;;;;13.83;97.51;97718.63;5022545;28;20045;-62
2022/10/13 09:57:36;;;;;;;17.40;8.77;;;;;;;13.68;98.09;97711.22;5019766;28;19931;-60
2022/10/13 10:00:20;;;;;;;16.60;8.30;;;;;;;13.74;97.72;97716.41;5006415;28;20267;-62
2022/10/13 10:02:56;;;;;;;16.27;8.50;;;;;;;13.78;97.04;97714.81;5021576;28;20508;-61
2022/10/13 10:05:41;;;;;;;19.15;10.15;;;;;;;13.61;97.88;97717.72;5022226;28;20049;-60
2022/10/13 10:08:20;;;;;;;15.68;8.52;;;;;;;13.62;97.63;97721.25;5021413;28;20042;-61
2022/10/13 10:11:01;;;;;;;17.87;8.43;;;;;;;13.73;97.54;97714.78;5019944;28;20049;-60
2022/10/13 10:13:27;;;;;;;16.63;8.82;;;;;;;13.68;97.80;97712.03;5023285;28;20300;-62
2022/10/13 10:16:04;;;;;;;15.25;8.25;;;;;;;13.86;96.95;97718.13;5018040;28;20041;-59
2022/10/13 10:18:52;;;;;;;17.80;9.23;;;;;;;13.82;96.09;97720.53;5021518;28;20026;-60
2022/10/13 10:21:42;;;;;;;12.60;7.80;;;;;;;13.78;96.83;97713.97;5021177;28;20073;-59
2022/10/13 10:24:21;;;;;;;16.13;7.97;;;;;;;13.82;96.84;97719.72;5021264;28;20037;-58
2022/10/13 10:27:07;;;;;;;16.58;8.52;;;;;;;13.75;96.87;97709.88;5022914;28;20487;-59
2022/10/13 10:29:45;;;;;;;14.98;9.00;;;;;;;13.81;97.31;97718.91;5021975;28;20695;-59
2022/10/13 10:32:25;;;;;;;14.20;8.05;;;;;;;13.94;95.76;97708.63;5022440;28;20581;-58
2022/10/13 10:35:13;;;;;;;14.75;8.13;;;;;;;13.94;95.11;97703.16;5023121;28;20531;-58
2022/10/13 10:38:07;;;;;;;14.02;8.75;;;;;;;14.07;94.20;97704.59;5022190;28;20128;-59
2022/10/13 10:41:06;;;;;;;13.77;7.53;;;;;;;14.11;94.35;97698.34;5022288;28;20038;-59
2022/10/13 10:43:55;;;;;;;18.48;7.93;;;;;;;14.23;93.22;97700.81;5020881;28;20393;-58
2022/10/13 10:46:27;;;;;;;15.13;7.05;;;;;;;14.35;92.27;97691.59;5009865;28;20416;-59
2022/10/13 10:48:58;;;;;;;12.95;6.70;;;;;;;14.40;92.25;97684.25;5022135;28;20061;-58
2022/10/13 10:51:30;;;;;;;16.45;7.72;;;;;;;14.41;91.32;97680.44;5023162;28;20046;-59
2022/10/13 10:54:16;;;;;;;11.90;7.35;;;;;;;14.36;90.76;97682.31;5022646;28;20160;-60
2022/10/13 10:56:54;;;;;;;15.95;7.35;;;;;;;14.34;91.63;97682.59;5023913;28;20056;-59
2022/10/13 10:59:54;;;;;;;12.35;7.10;;;;;;;14.41;90.92;97679.63;5022649;28;20492;-59
2022/10/13 11:02:45;;;;;;;13.20;6.85;;;;;;;14.55;89.70;97674.47;5021380;28;20045;-60
2022/10/13 11:05:12;;;;;;;12.38;6.88;;;;;;;14.62;90.34;97661.41;5025469;28;20468;-59
2022/10/13 11:07:39;;;;;;;13.18;7.15;;;;;;;14.79;89.35;97665.81;5026832;28;20115;-60
2022/10/13 11:10:17;;;;;;;13.05;7.70;;;;;;;14.93;88.07;97661.41;5026616;28;20033;-59
2022/10/13 11:12:51;;;;;;;16.65;7.10;;;;;;;14.99;86.52;97662.25;5022314;28;20172;-60
2022/10/13 11:15:24;;;;;;;14.00;6.45;;;;;;;15.06;86.00;97656.50;5026935;28;20139;-58
2022/10/13 11:17:51;;;;;;;10.00;5.55;;;;;;;15.01;86.33;97657.34;5026444;28;20045;-56
2022/10/13 11:20:20;;;;;;;11.60;6.35;;;;;;;14.86;86.71;97652.72;5026292;28;20041;-59
2022/10/13 11:22:59;;;;;;;9.52;6.20;;;;;;;14.92;86.53;97648.88;5025676;28;20425;-55
2022/10/13 11:25:34;;;;;;;13.43;6.20;;;;;;;14.97;85.94;97650.81;5025251;28;20120;-61
2022/10/13 11:28:21;;;;;;;9.95;5.30;;;;;;;14.96;85.56;97646.44;5034295;28;20478;-62
2022/10/13 11:30:49;;;;;;;12.52;6.25;;;;;;;15.00;84.62;97635.81;5027870;28;20049;-62
2022/10/13 11:33:34;;;;;;;9.38;5.38;;;;;;;15.04;84.93;97634.16;5033581;28;20049;-62
2022/10/13 11:36:30;;;;;;;9.18;5.10;;;;;;;15.26;83.86;97631.09;5031489;28;20068;-61
2022/10/13 11:39:15;;;;;;;14.27;6.05;;;;;;;15.51;82.51;97639.53;5035011;28;20042;-62